createdAt,value
2018-12-04T00:02:07.878Z,86.53
2018-12-04T00:04:38.480Z,86.95
2018-12-04T00:07:09.297Z,86.75
2018-12-04T00:09:39.979Z,87.15
2018-12-04T00:12:10.963Z,87.62
2018-12-04T00:14:41.558Z,87.81
2018-12-04T00:17:12.425Z,87.68
2018-12-04T00:19:43.043Z,87.58
2018-12-04T00:22:20.349Z,87.68
2018-12-04T00:24:51.164Z,87.81
2018-12-04T00:27:21.791Z,87.63
2018-12-04T00:29:52.480Z,88.17
2018-12-04T00:32:24.013Z,87.75
2018-12-04T00:34:54.690Z,88.30
2018-12-04T00:37:25.342Z,88.20
2018-12-04T00:39:55.939Z,88.98
2018-12-04T00:42:26.674Z,88.88
2018-12-04T00:44:57.597Z,88.69
2018-12-04T00:47:28.867Z,88.46
2018-12-04T00:49:59.553Z,88.40
2018-12-04T00:52:30.247Z,88.74
2018-12-04T00:55:00.862Z,88.53
2018-12-04T00:57:31.518Z,88.64
2018-12-04T01:00:02.147Z,88.82
2018-12-04T01:02:34.298Z,88.55
2018-12-04T01:05:06.588Z,88.44
2018-12-04T01:07:37.517Z,88.30
2018-12-04T01:10:09.407Z,88.15
2018-12-04T01:12:40.534Z,88.41
2018-12-04T01:15:11.104Z,88.01
2018-12-04T01:17:42.618Z,87.94
2018-12-04T01:20:13.190Z,87.95
2018-12-04T01:22:43.777Z,87.51
2018-12-04T01:25:14.789Z,87.97
2018-12-04T01:27:45.830Z,87.60
2018-12-04T01:30:17.461Z,87.25
2018-12-04T01:32:48.058Z,87.01
2018-12-04T01:35:18.842Z,87.31
2018-12-04T01:37:49.496Z,86.27
2018-12-04T01:40:20.073Z,86.19
2018-12-04T01:42:51.453Z,86.49
2018-12-04T01:45:22.115Z,86.25
2018-12-04T01:47:52.729Z,86.12
2018-12-04T01:50:23.608Z,85.62
2018-12-04T01:52:54.178Z,86.47
2018-12-04T01:55:24.770Z,86.43
2018-12-04T01:57:55.434Z,85.61
2018-12-04T02:00:26.034Z,86.06
2018-12-04T02:02:56.602Z,85.81
2018-12-04T02:05:28.105Z,85.53
2018-12-04T02:07:58.904Z,85.45
2018-12-04T02:10:29.557Z,85.04
2018-12-04T02:13:00.171Z,84.75
2018-12-04T02:15:30.777Z,84.56
2018-12-04T02:18:02.155Z,84.28
2018-12-04T02:20:32.750Z,84.39
2018-12-04T02:23:03.328Z,84.18
2018-12-04T02:25:35.076Z,84.43
2018-12-04T02:28:05.982Z,84.41
2018-12-04T02:30:37.054Z,84.23
2018-12-04T02:33:08.199Z,84.33
2018-12-04T02:35:38.798Z,84.34
2018-12-04T02:38:09.429Z,84.38
2018-12-04T02:40:40.024Z,84.37
2018-12-04T02:43:10.619Z,83.93
2018-12-04T02:45:41.318Z,83.92
2018-12-04T02:48:11.966Z,84.71
2018-12-04T02:50:42.995Z,84.73
2018-12-04T02:53:14.076Z,85.06
2018-12-04T02:55:44.920Z,85.49
2018-12-04T02:58:17.117Z,85.51
2018-12-04T03:00:47.800Z,85.67
2018-12-04T03:03:18.655Z,85.59
2018-12-04T03:05:49.308Z,85.52
2018-12-04T03:08:20.230Z,85.62
2018-12-04T03:10:51.038Z,85.74
2018-12-04T03:13:21.874Z,86.04
2018-12-04T03:15:52.493Z,85.94
2018-12-04T03:18:24.076Z,85.74
2018-12-04T03:20:54.770Z,85.58
2018-12-04T03:23:25.643Z,86.12
2018-12-04T03:25:56.434Z,85.97
2018-12-04T03:28:27.109Z,86.13
2018-12-04T03:30:59.450Z,86.07
2018-12-04T03:33:40.208Z,86.21
2018-12-04T03:36:11.053Z,86.21
2018-12-04T03:38:42.909Z,86.21
2018-12-04T03:41:13.633Z,86.29
2018-12-04T03:43:44.678Z,85.69
2018-12-04T03:46:15.285Z,85.50
2018-12-04T03:48:46.154Z,85.53
2018-12-04T03:51:16.715Z,85.58
2018-12-04T03:53:47.359Z,85.60
2018-12-04T03:56:17.965Z,85.54
2018-12-04T03:58:48.570Z,85.28
2018-12-04T04:01:19.167Z,85.31
2018-12-04T04:03:49.793Z,85.57
2018-12-04T04:06:20.572Z,85.41
2018-12-04T04:08:51.205Z,85.58
2018-12-04T04:11:23.275Z,85.98
2018-12-04T04:13:53.896Z,85.78
2018-12-04T04:16:24.661Z,85.69
2018-12-04T04:18:55.751Z,86.04
2018-12-04T04:21:26.745Z,86.09
2018-12-04T04:23:57.651Z,86.32
2018-12-04T04:26:28.372Z,86.65
2018-12-04T04:28:59.623Z,86.61
2018-12-04T04:31:30.267Z,86.60
2018-12-04T04:34:01.947Z,86.98
2018-12-04T04:36:32.874Z,86.20
2018-12-04T04:39:05.050Z,86.32
2018-12-04T04:41:36.832Z,86.46
2018-12-04T04:44:07.576Z,86.30
2018-12-04T04:46:38.497Z,85.69
2018-12-04T04:49:09.066Z,86.16
2018-12-04T04:51:39.927Z,85.68
2018-12-04T04:54:12.195Z,85.24
2018-12-04T04:56:43.091Z,85.07
2018-12-04T04:59:13.677Z,85.45
2018-12-04T05:01:44.302Z,85.72
2018-12-04T05:04:15.097Z,86.15
2018-12-04T05:06:46.424Z,85.49
2018-12-04T05:09:17.160Z,85.35
2018-12-04T05:11:48.346Z,84.44
2018-12-04T05:14:18.954Z,85.29
2018-12-04T05:16:49.962Z,85.45
2018-12-04T05:19:20.619Z,84.39
2018-12-04T05:21:51.261Z,84.72
2018-12-04T05:24:21.984Z,84.51
2018-12-04T05:26:53.126Z,83.79
2018-12-04T05:29:23.812Z,84.32
2018-12-04T05:31:54.399Z,84.25
2018-12-04T05:34:24.975Z,84.73
2018-12-04T05:36:55.670Z,84.93
2018-12-04T05:39:28.123Z,85.36
2018-12-04T05:41:58.767Z,85.48
2018-12-04T05:44:29.407Z,85.82
2018-12-04T05:47:00.011Z,85.77
2018-12-04T05:49:30.614Z,86.57
2018-12-04T05:52:01.258Z,86.91
2018-12-04T05:54:32.052Z,86.34
2018-12-04T05:57:02.635Z,86.64
2018-12-04T05:59:33.347Z,86.98
2018-12-04T06:02:03.918Z,86.07
2018-12-04T06:04:36.059Z,85.76
2018-12-04T06:07:06.630Z,85.80
2018-12-04T06:09:37.289Z,85.68
2018-12-04T06:12:08.396Z,85.28
2018-12-04T06:14:39.220Z,85.70
2018-12-04T06:17:10.270Z,85.84
2018-12-04T06:19:41.622Z,85.60
2018-12-04T06:22:12.242Z,85.67
2018-12-04T06:24:43.490Z,85.59
2018-12-04T06:27:14.077Z,85.60
2018-12-04T06:29:44.674Z,86.07
2018-12-04T06:32:15.253Z,85.63
2018-12-04T06:34:45.878Z,86.19
2018-12-04T06:37:16.495Z,86.02
2018-12-04T06:39:47.087Z,85.28
2018-12-04T06:42:17.678Z,85.73
2018-12-04T06:44:48.328Z,85.32
2018-12-04T06:47:19.246Z,85.70
2018-12-04T06:49:49.842Z,85.84
2018-12-04T06:52:20.533Z,84.93
2018-12-04T06:54:51.109Z,85.38
2018-12-04T06:57:21.675Z,85.13
2018-12-04T06:59:53.035Z,84.68
2018-12-04T07:02:23.617Z,84.29
2018-12-04T07:04:54.189Z,84.75
2018-12-04T07:07:24.746Z,84.17
2018-12-04T07:09:55.589Z,84.89
2018-12-04T07:12:26.249Z,85.02
2018-12-04T07:14:57.822Z,85.20
2018-12-04T07:17:28.428Z,84.49
2018-12-04T07:19:58.989Z,84.95
2018-12-04T07:22:29.566Z,85.22
2018-12-04T07:25:00.147Z,84.78
2018-12-04T07:27:30.750Z,85.04
2018-12-04T07:30:01.354Z,84.99
2018-12-04T07:32:32.490Z,84.46
2018-12-04T07:35:03.081Z,84.72
2018-12-04T07:37:33.707Z,84.49
2018-12-04T07:40:05.170Z,84.63
2018-12-04T07:42:36.955Z,84.45
2018-12-04T07:45:08.659Z,84.66
2018-12-04T07:47:39.542Z,84.31
2018-12-04T07:50:10.777Z,84.90
2018-12-04T07:52:41.388Z,84.61
2018-12-04T07:55:11.971Z,84.77
2018-12-04T07:57:42.883Z,84.70
2018-12-04T08:00:13.542Z,84.28
2018-12-04T08:02:44.164Z,83.86
2018-12-04T08:05:14.742Z,83.53
2018-12-04T08:07:45.344Z,84.07
2018-12-04T08:10:15.941Z,83.57
2018-12-04T08:12:46.513Z,83.98
2018-12-04T08:15:17.168Z,83.94
2018-12-04T08:17:47.771Z,83.79
2018-12-04T08:20:18.342Z,83.50
2018-12-04T08:22:48.925Z,83.01
2018-12-04T08:25:19.594Z,82.92
2018-12-04T08:27:50.351Z,82.86
2018-12-04T08:30:21.606Z,83.09
2018-12-04T08:32:52.191Z,82.44
2018-12-04T08:35:23.237Z,82.43
2018-12-04T08:37:54.095Z,82.47
2018-12-04T08:40:24.810Z,82.46
2018-12-04T08:42:55.456Z,81.85
2018-12-04T08:45:26.071Z,81.35
2018-12-04T08:47:56.735Z,81.36
2018-12-04T08:50:28.175Z,81.28
2018-12-04T08:52:58.745Z,81.15
2018-12-04T08:55:30.227Z,81.41
2018-12-04T08:58:00.878Z,81.25
2018-12-04T09:00:32.344Z,81.66
2018-12-04T09:03:03.394Z,81.01
2018-12-04T09:05:34.251Z,81.26
2018-12-04T09:08:09.308Z,81.10
2018-12-04T09:10:37.563Z,80.79
2018-12-04T09:13:08.247Z,81.00
2018-12-04T09:15:39.281Z,81.28
2018-12-04T09:18:09.951Z,81.18
2018-12-04T09:20:40.866Z,82.14
2018-12-04T09:23:12.685Z,81.72
2018-12-04T09:25:44.045Z,79.94
2018-12-04T09:28:15.260Z,78.74
2018-12-04T09:30:46.193Z,77.56
2018-12-04T09:33:17.612Z,76.94
2018-12-04T09:35:48.445Z,75.46
2018-12-04T09:38:19.299Z,75.49
2018-12-04T09:40:50.493Z,75.05
2018-12-04T09:43:21.871Z,74.38
2018-12-04T09:45:52.590Z,74.35
2018-12-04T09:48:23.194Z,74.42
2018-12-04T09:50:53.858Z,74.29
2018-12-04T09:53:25.432Z,74.56
2018-12-04T09:55:56.610Z,73.93
2018-12-04T09:58:28.239Z,74.42
2018-12-04T10:00:58.846Z,74.73
2018-12-04T10:03:29.417Z,75.18
2018-12-04T10:06:00.081Z,73.54
2018-12-04T10:08:30.658Z,73.93
2018-12-04T10:11:01.378Z,75.33
2018-12-04T10:13:32.095Z,73.21
2018-12-04T10:16:02.941Z,72.70
2018-12-04T10:18:33.542Z,72.46
2018-12-04T10:21:04.808Z,73.31
2018-12-04T10:23:35.426Z,73.67
2018-12-04T10:26:06.502Z,74.10
2018-12-04T10:28:37.879Z,74.54
2018-12-04T10:31:11.531Z,72.93
2018-12-04T10:33:42.654Z,72.80
2018-12-04T10:36:13.254Z,71.99
2018-12-04T10:38:43.851Z,73.40
2018-12-04T10:41:14.426Z,72.91
2018-12-04T10:43:45.345Z,72.60
2018-12-04T10:46:15.934Z,73.36
2018-12-04T10:48:46.848Z,74.01
2018-12-04T10:51:17.458Z,73.87
2018-12-04T10:53:48.078Z,73.61
2018-12-04T10:56:19.118Z,72.74
2018-12-04T10:58:49.841Z,73.32
2018-12-04T11:04:13.869Z,72.55
2018-12-04T11:06:44.466Z,72.68
2018-12-04T11:09:15.129Z,72.41
2018-12-04T11:11:45.706Z,71.52
2018-12-04T11:14:16.305Z,72.08
2018-12-04T11:16:46.872Z,72.50
2018-12-04T11:19:19.363Z,73.22
2018-12-04T11:21:50.247Z,73.21
2018-12-04T11:24:22.130Z,72.83
2018-12-04T11:26:59.362Z,74.39
2018-12-04T11:29:30.090Z,74.92
2018-12-04T11:32:00.698Z,75.47
2018-12-04T11:34:31.346Z,75.60
2018-12-04T11:37:01.951Z,75.65
2018-12-04T11:39:32.534Z,75.49
2018-12-04T11:42:03.158Z,75.92
2018-12-04T11:44:33.743Z,76.08
2018-12-04T11:47:04.359Z,76.61
2018-12-04T11:49:34.937Z,77.55
2018-12-04T11:52:06.043Z,77.31
2018-12-04T11:54:36.661Z,76.56
2018-12-04T11:57:07.783Z,77.12
2018-12-04T11:59:38.604Z,76.58
2018-12-04T12:02:10.915Z,76.70
2018-12-04T12:04:41.785Z,76.28
2018-12-04T12:07:14.121Z,77.30
2018-12-04T12:09:44.931Z,76.83
2018-12-04T12:12:15.523Z,76.84
2018-12-04T12:14:46.345Z,76.70
2018-12-04T12:17:23.606Z,76.68
2018-12-04T12:19:54.198Z,76.35
2018-12-04T12:22:24.866Z,77.57
2018-12-04T12:24:55.697Z,77.69
2018-12-04T12:27:26.298Z,76.76
2018-12-04T12:29:56.943Z,76.33
2018-12-04T12:32:27.558Z,76.53
2018-12-04T12:34:58.149Z,75.94
2018-12-04T12:37:28.922Z,76.46
2018-12-04T12:39:59.483Z,75.96
2018-12-04T12:42:30.251Z,76.02
2018-12-04T12:45:00.885Z,76.77
2018-12-04T12:47:31.536Z,76.21
2018-12-04T12:50:02.689Z,77.04
2018-12-04T12:52:33.398Z,76.49
2018-12-04T12:55:04.803Z,76.00
2018-12-04T12:57:36.611Z,75.04
2018-12-04T13:00:09.619Z,74.02
2018-12-04T13:02:41.490Z,74.29
2018-12-04T13:05:13.470Z,73.55
2018-12-04T13:07:51.035Z,73.80
2018-12-04T13:10:21.623Z,73.83
2018-12-04T13:12:52.311Z,74.36
2018-12-04T13:15:22.900Z,74.19
2018-12-04T13:17:53.550Z,75.24
2018-12-04T13:20:24.419Z,74.33
2018-12-04T13:22:55.226Z,73.91
2018-12-04T13:25:26.892Z,74.54
2018-12-04T13:27:57.510Z,74.97
2018-12-04T13:30:28.151Z,75.25
2018-12-04T13:32:58.987Z,75.12
2018-12-04T13:35:29.729Z,74.42
2018-12-04T13:38:00.342Z,74.96
2018-12-04T13:40:30.989Z,74.41
2018-12-04T13:43:01.904Z,74.78
2018-12-04T13:45:32.539Z,74.35
2018-12-04T13:48:03.129Z,74.09
2018-12-04T13:50:34.429Z,74.94
2018-12-04T13:53:05.034Z,74.02
2018-12-04T13:55:35.636Z,73.94
2018-12-04T13:58:06.252Z,74.30
2018-12-04T14:00:37.170Z,74.87
2018-12-04T14:03:07.808Z,74.81
2018-12-04T14:05:38.625Z,74.41
2018-12-04T14:08:09.209Z,74.48
2018-12-04T14:10:39.890Z,75.00
2018-12-04T14:13:10.770Z,74.43
2018-12-04T14:15:42.076Z,74.25
2018-12-04T14:18:12.979Z,75.07
2018-12-04T14:20:43.665Z,74.70
2018-12-04T14:23:14.321Z,75.58
2018-12-04T14:25:45.151Z,76.35
2018-12-04T14:28:15.823Z,76.98
2018-12-04T14:30:46.700Z,76.47
2018-12-04T14:33:17.731Z,76.37
2018-12-04T14:35:49.311Z,76.16
2018-12-04T14:38:19.923Z,76.54
2018-12-04T14:40:52.686Z,76.83
2018-12-04T14:43:23.543Z,76.69
2018-12-04T14:45:55.266Z,76.34
2018-12-04T14:48:26.169Z,76.62
2018-12-04T14:50:56.782Z,77.17
2018-12-04T14:53:27.679Z,76.67
2018-12-04T14:55:58.470Z,77.91
2018-12-04T14:58:29.288Z,76.59
2018-12-04T15:01:00.369Z,76.56
2018-12-04T15:03:31.239Z,75.63
2018-12-04T15:06:02.173Z,74.96
2018-12-04T15:08:33.017Z,75.26
2018-12-04T15:11:05.224Z,75.26
2018-12-04T15:13:35.811Z,75.82
2018-12-04T15:16:06.868Z,75.32
2018-12-04T15:18:37.737Z,75.07
2018-12-04T15:21:08.693Z,75.52
2018-12-04T15:23:39.529Z,75.70
2018-12-04T15:26:10.557Z,76.11
2018-12-04T15:28:41.986Z,74.98
2018-12-04T15:31:12.651Z,75.19
2018-12-04T15:33:43.344Z,75.01
2018-12-04T15:36:14.169Z,75.22
2018-12-04T15:38:45.002Z,75.96
2018-12-04T15:41:15.947Z,75.56
2018-12-04T15:43:46.883Z,75.68
2018-12-04T15:46:17.737Z,74.73
2018-12-04T15:48:48.388Z,75.85
2018-12-04T15:51:19.213Z,75.03
2018-12-04T15:53:49.821Z,75.05
2018-12-04T15:56:20.999Z,75.58
2018-12-04T15:58:51.633Z,76.38
2018-12-04T16:01:22.226Z,76.48
2018-12-04T16:03:52.908Z,76.44
2018-12-04T16:06:23.535Z,76.27
2018-12-04T16:08:54.149Z,75.73
2018-12-04T16:11:24.886Z,75.55
2018-12-04T16:13:55.556Z,74.98
2018-12-04T16:16:26.479Z,75.38
2018-12-04T16:18:57.098Z,74.83
2018-12-04T16:21:27.934Z,75.15
2018-12-04T16:23:58.558Z,75.48
2018-12-04T16:26:29.214Z,75.36
2018-12-04T16:29:00.449Z,75.25
2018-12-04T16:31:31.041Z,75.32
2018-12-04T16:34:01.731Z,75.26
2018-12-04T16:36:33.356Z,75.88
2018-12-04T16:39:07.074Z,76.35
2018-12-04T16:41:38.265Z,76.97
2018-12-04T16:44:09.707Z,76.44
2018-12-04T16:46:40.449Z,76.71
2018-12-04T16:49:11.364Z,76.99
2018-12-04T16:51:42.389Z,77.22
2018-12-04T16:54:13.002Z,77.81
2018-12-04T16:56:43.911Z,77.00
2018-12-04T16:59:14.694Z,77.80
2018-12-04T17:01:45.370Z,76.96
2018-12-04T17:04:17.079Z,77.91
2018-12-04T17:06:47.894Z,77.66
2018-12-04T17:09:18.748Z,77.38
2018-12-04T17:11:49.541Z,77.58
2018-12-04T17:14:20.166Z,78.31
2018-12-04T17:16:50.919Z,78.83
2018-12-04T17:19:22.399Z,78.35
2018-12-04T17:21:53.144Z,78.44
2018-12-04T17:24:25.474Z,78.74
2018-12-04T17:26:56.079Z,79.25
2018-12-04T17:29:27.984Z,79.30
2018-12-04T17:31:58.988Z,78.45
2018-12-04T17:34:29.742Z,78.93
2018-12-04T17:37:01.150Z,78.55
2018-12-04T17:39:32.950Z,78.51
2018-12-04T17:42:03.555Z,79.06
2018-12-04T17:44:40.232Z,78.83
2018-12-04T17:47:07.317Z,78.94
2018-12-04T17:49:37.925Z,79.66
2018-12-04T17:52:08.550Z,79.62
2018-12-04T17:54:39.130Z,79.90
2018-12-04T17:57:09.712Z,79.59
2018-12-04T17:59:42.418Z,80.55
2018-12-04T18:02:14.119Z,80.56
2018-12-04T18:04:44.704Z,81.20
2018-12-04T18:07:17.033Z,80.34
2018-12-04T18:12:26.508Z,80.21
2018-12-04T18:14:59.519Z,80.66
2018-12-04T18:17:30.419Z,81.17
2018-12-04T18:20:01.098Z,81.12
2018-12-04T18:22:32.286Z,81.71
2018-12-04T18:25:03.170Z,80.80
2018-12-04T18:27:33.788Z,81.26
2018-12-04T18:30:05.953Z,81.16
2018-12-04T18:32:36.781Z,81.49
2018-12-04T18:35:08.845Z,80.97
2018-12-04T18:37:39.466Z,81.14
2018-12-04T18:40:11.201Z,81.11
2018-12-04T18:42:41.988Z,81.12
2018-12-04T18:45:13.603Z,81.42
2018-12-04T18:47:44.998Z,81.42
2018-12-04T18:50:16.523Z,81.20
2018-12-04T18:52:47.146Z,81.01
2018-12-04T18:55:22.686Z,80.60
2018-12-04T18:57:54.274Z,80.59
2018-12-04T19:00:25.386Z,81.42
2018-12-04T19:02:59.801Z,81.08
2018-12-04T19:05:30.427Z,81.48
2018-12-04T19:08:01.053Z,81.64
2018-12-04T19:10:34.396Z,81.81
2018-12-04T19:13:05.079Z,81.57
2018-12-04T19:15:36.275Z,82.42
2018-12-04T19:18:06.954Z,81.92
2018-12-04T19:20:37.546Z,82.52
2018-12-04T19:23:08.525Z,82.50
2018-12-04T19:25:39.106Z,82.52
2018-12-04T19:28:10.542Z,82.74
2018-12-04T19:30:41.270Z,83.17
2018-12-04T19:33:11.850Z,83.00
2018-12-04T19:35:42.458Z,81.96
2018-12-04T19:38:13.143Z,82.95
2018-12-04T19:40:44.495Z,82.00
2018-12-04T19:43:15.238Z,82.83
2018-12-04T19:45:45.980Z,82.99
2018-12-04T19:48:16.997Z,82.82
2018-12-04T19:50:47.917Z,82.55
2018-12-04T19:53:18.700Z,82.85
2018-12-04T19:55:49.330Z,83.41
2018-12-04T19:58:21.655Z,83.14
2018-12-04T20:00:53.095Z,83.40
2018-12-04T20:03:23.868Z,83.20
2018-12-04T20:05:54.699Z,83.42
2018-12-04T20:11:17.291Z,82.89
2018-12-04T20:13:47.891Z,82.75
2018-12-04T20:16:18.602Z,83.05
2018-12-04T20:18:49.454Z,83.05
2018-12-04T20:21:20.152Z,83.00
2018-12-04T20:23:50.763Z,82.29
2018-12-04T20:26:21.511Z,82.45
2018-12-04T20:28:52.169Z,82.71
2018-12-04T20:31:24.075Z,82.86
2018-12-04T20:33:55.101Z,82.70
2018-12-04T20:36:25.829Z,82.47
2018-12-04T20:38:57.312Z,82.68
2018-12-04T20:41:27.983Z,83.00
2018-12-04T20:43:58.586Z,82.79
2018-12-04T20:46:29.749Z,83.74
2018-12-04T20:49:00.851Z,83.51
2018-12-04T20:51:31.514Z,84.14
2018-12-04T20:54:02.362Z,83.98
2018-12-04T20:56:33.296Z,83.85
2018-12-04T20:59:04.821Z,84.63
2018-12-04T21:01:36.024Z,83.06
2018-12-04T21:04:07.638Z,83.03
2018-12-04T21:06:38.438Z,83.90
2018-12-04T21:09:09.662Z,85.11
2018-12-04T21:11:40.833Z,83.88
2018-12-04T21:14:11.508Z,84.71
2018-12-04T21:16:43.098Z,83.50
2018-12-04T21:19:13.721Z,84.49
2018-12-04T21:21:44.668Z,84.18
2018-12-04T21:24:15.275Z,83.81
2018-12-04T21:26:45.931Z,83.67
2018-12-04T21:29:22.047Z,83.43
2018-12-04T21:31:58.854Z,83.64
2018-12-04T21:34:34.738Z,82.45
2018-12-04T21:37:10.994Z,81.99
2018-12-04T21:39:44.298Z,81.12
2018-12-04T21:42:20.032Z,81.65
2018-12-04T21:44:55.831Z,81.69
2018-12-04T21:47:31.725Z,81.80
2018-12-04T21:50:03.336Z,81.84
2018-12-04T21:52:35.743Z,82.93
2018-12-04T21:55:07.291Z,81.81
2018-12-04T21:57:38.535Z,82.54
2018-12-04T22:00:10.655Z,83.64
2018-12-04T22:02:41.245Z,83.28
2018-12-04T22:05:12.517Z,83.98
2018-12-04T22:07:43.254Z,83.57
2018-12-04T22:10:14.850Z,83.87
2018-12-04T22:12:45.753Z,84.43
2018-12-04T22:15:17.405Z,83.54
2018-12-04T22:17:47.980Z,83.93
2018-12-04T22:20:18.885Z,82.66
2018-12-04T22:22:49.540Z,83.71
2018-12-04T22:25:20.198Z,82.95
2018-12-04T22:27:52.268Z,82.91
2018-12-04T22:30:23.530Z,82.98
2018-12-04T22:32:54.845Z,81.22
2018-12-04T22:35:25.523Z,82.04
2018-12-04T22:37:56.175Z,81.89
2018-12-04T22:40:27.808Z,82.31
2018-12-04T22:42:58.474Z,82.58
2018-12-04T22:45:30.436Z,82.93
2018-12-04T22:48:01.402Z,82.18
2018-12-04T22:50:32.394Z,82.36
2018-12-04T22:53:03.443Z,82.64
2018-12-04T22:55:34.049Z,82.47
2018-12-04T22:58:04.944Z,82.96
2018-12-04T23:00:43.562Z,83.05
2018-12-04T23:03:15.730Z,83.67
2018-12-04T23:05:46.471Z,83.54
2018-12-04T23:08:17.470Z,83.80
2018-12-04T23:10:49.126Z,83.62
2018-12-04T23:13:20.087Z,84.31
2018-12-04T23:15:51.378Z,83.12
2018-12-04T23:18:22.675Z,83.78
2018-12-04T23:20:53.580Z,83.91
2018-12-04T23:23:24.444Z,83.64
2018-12-04T23:25:55.335Z,82.88
2018-12-04T23:28:26.182Z,82.97
2018-12-04T23:30:57.169Z,83.44
2018-12-04T23:33:28.399Z,82.91
2018-12-04T23:35:58.962Z,83.69
2018-12-04T23:38:29.798Z,82.54
2018-12-04T23:41:02.825Z,83.23
2018-12-04T23:43:34.197Z,82.89
2018-12-04T23:46:05.045Z,82.27
2018-12-04T23:48:36.520Z,82.55
2018-12-04T23:51:07.475Z,84.11
2018-12-04T23:53:39.382Z,83.21
2018-12-04T23:56:10.233Z,83.89
2018-12-04T23:58:41.158Z,83.65
